createdAt,value
2023-08-15T00:00:56.337Z,4.05
2023-08-15T00:02:57.941Z,3.38
2023-08-15T00:04:59.550Z,3.80
2023-08-15T00:07:21.395Z,3.58
2023-08-15T00:09:23.199Z,3.50
2023-08-15T00:11:24.810Z,4.43
2023-08-15T00:13:26.426Z,3.83
2023-08-15T00:15:27.996Z,3.38
2023-08-15T00:17:29.578Z,3.90
2023-08-15T00:19:31.167Z,3.95
2023-08-15T00:21:32.919Z,3.83
2023-08-15T00:23:35.013Z,3.63
2023-08-15T00:25:36.635Z,3.65
2023-08-15T00:27:38.233Z,4.28
2023-08-15T00:29:39.876Z,3.53
2023-08-15T00:31:42.426Z,3.47
2023-08-15T00:33:44.032Z,3.83
2023-08-15T00:35:45.663Z,3.60
2023-08-15T00:37:47.286Z,3.55
2023-08-15T00:39:48.999Z,4.50
2023-08-15T00:41:50.550Z,3.72
2023-08-15T00:43:52.100Z,3.67
2023-08-15T00:45:54.029Z,3.70
2023-08-15T00:47:55.939Z,4.07
2023-08-15T00:49:58.718Z,3.78
2023-08-15T00:52:00.467Z,3.40
2023-08-15T00:54:02.292Z,3.50
2023-08-15T00:56:05.126Z,3.47
2023-08-15T00:58:07.066Z,3.38
2023-08-15T01:00:09.383Z,3.90
2023-08-15T01:02:11.768Z,3.90
2023-08-15T01:04:15.681Z,5.30
2023-08-15T01:06:17.287Z,4.25
2023-08-15T01:08:19.146Z,3.88
2023-08-15T01:10:20.737Z,3.50
2023-08-15T01:12:44.338Z,3.60
2023-08-15T01:14:53.882Z,3.13
2023-08-15T01:19:06.275Z,3.90
2023-08-15T01:21:08.903Z,4.20
2023-08-15T01:23:13.753Z,3.85
2023-08-15T01:25:15.864Z,4.35
2023-08-15T01:27:20.489Z,3.83
2023-08-15T01:29:22.509Z,3.85
2023-08-15T01:31:33.992Z,3.78
2023-08-15T01:33:40.836Z,3.58
2023-08-15T01:35:51.871Z,3.28
2023-08-15T01:38:19.483Z,3.80
2023-08-15T01:40:23.166Z,3.72
2023-08-15T01:42:26.709Z,4.18
2023-08-15T01:44:30.428Z,4.00
2023-08-15T01:46:32.287Z,3.80
2023-08-15T01:48:39.242Z,4.68
2023-08-15T01:50:40.984Z,3.40
2023-08-15T01:52:43.842Z,3.88
2023-08-15T01:56:47.160Z,3.70
2023-08-15T01:58:48.924Z,3.33
2023-08-15T02:00:50.584Z,3.88
2023-08-15T02:02:52.920Z,3.70
2023-08-15T02:04:54.674Z,3.92
2023-08-15T02:06:56.214Z,3.47
2023-08-15T02:08:57.941Z,4.25
2023-08-15T02:10:59.671Z,3.95
2023-08-15T02:13:01.883Z,3.80
2023-08-15T02:15:05.768Z,3.78
2023-08-15T02:17:08.134Z,3.65
2023-08-15T02:19:09.953Z,3.60
2023-08-15T02:21:11.495Z,3.00
2023-08-15T02:23:13.629Z,2.63
2023-08-15T02:27:16.797Z,3.90
2023-08-15T02:29:18.534Z,4.50
2023-08-15T02:31:21.048Z,4.65
2023-08-15T02:33:22.620Z,4.25
2023-08-15T02:35:24.222Z,4.07
2023-08-15T02:37:26.204Z,3.97
2023-08-15T02:39:27.740Z,4.45
2023-08-15T02:41:29.731Z,3.78
2023-08-15T02:43:31.330Z,3.85
2023-08-15T02:45:34.746Z,4.32
2023-08-15T02:47:36.660Z,4.05
2023-08-15T02:49:39.742Z,4.60
2023-08-15T02:51:41.340Z,3.58
2023-08-15T02:53:42.999Z,3.88
2023-08-15T02:55:44.635Z,3.78
2023-08-15T02:57:46.421Z,4.05
2023-08-15T02:59:48.162Z,3.83
2023-08-15T03:03:52.488Z,3.47
2023-08-15T03:05:54.029Z,3.65
2023-08-15T03:07:55.604Z,4.03
2023-08-15T03:09:57.309Z,3.90
2023-08-15T03:11:59.361Z,4.07
2023-08-15T03:16:02.566Z,3.70
2023-08-15T03:18:06.777Z,3.58
2023-08-15T03:20:10.590Z,3.92
2023-08-15T03:22:12.686Z,3.95
2023-08-15T03:24:14.747Z,3.63
2023-08-15T03:26:16.645Z,3.42
2023-08-15T03:28:18.183Z,3.60
2023-08-15T03:30:20.179Z,3.70
2023-08-15T03:32:22.151Z,3.70
2023-08-15T03:34:23.751Z,3.85
2023-08-15T03:36:25.806Z,3.60
2023-08-15T03:38:28.079Z,3.67
2023-08-15T03:40:29.685Z,3.67
2023-08-15T03:42:31.298Z,4.18
2023-08-15T03:44:33.898Z,4.25
2023-08-15T03:46:35.503Z,3.25
2023-08-15T03:48:37.499Z,3.50
2023-08-15T03:50:39.602Z,4.28
2023-08-15T03:52:41.170Z,3.80
2023-08-15T03:54:43.229Z,3.50
2023-08-15T03:56:45.689Z,3.50
2023-08-15T03:58:47.244Z,3.60
2023-08-15T04:00:50.055Z,3.67
2023-08-15T04:02:52.434Z,3.67
2023-08-15T04:04:54.010Z,3.60
2023-08-15T04:06:55.538Z,3.80
2023-08-15T04:08:57.129Z,3.90
2023-08-15T04:10:58.906Z,3.95
2023-08-15T04:13:00.460Z,4.10
2023-08-15T04:15:01.989Z,3.63
2023-08-15T04:17:06.139Z,4.18
2023-08-15T04:19:08.740Z,3.45
2023-08-15T04:21:13.214Z,3.85
2023-08-15T04:23:15.465Z,3.50
2023-08-15T04:27:19.321Z,3.60
2023-08-15T04:29:21.171Z,3.80
2023-08-15T04:31:23.081Z,4.40
2023-08-15T04:33:24.667Z,4.28
2023-08-15T04:37:32.333Z,3.67
2023-08-15T04:39:35.081Z,3.92
2023-08-15T04:41:36.735Z,3.97
2023-08-15T04:43:38.421Z,3.80
2023-08-15T04:45:44.816Z,4.05
2023-08-15T04:47:46.847Z,3.90
2023-08-15T04:49:50.182Z,3.53
2023-08-15T04:51:51.916Z,3.20
2023-08-15T04:53:53.528Z,3.78
2023-08-15T04:55:55.128Z,4.05
2023-08-15T04:57:56.659Z,4.03
2023-08-15T04:59:58.312Z,3.92
2023-08-15T05:01:59.893Z,4.10
2023-08-15T05:04:01.498Z,4.13
2023-08-15T05:06:04.837Z,4.60
2023-08-15T05:08:07.765Z,4.95
2023-08-15T05:10:10.038Z,4.93
2023-08-15T05:12:14.337Z,4.72
2023-08-15T05:14:17.338Z,5.05
2023-08-15T05:16:20.675Z,4.93
2023-08-15T05:18:22.373Z,4.60
2023-08-15T05:20:24.034Z,4.72
2023-08-15T05:22:25.863Z,4.80
2023-08-15T05:24:27.630Z,4.63
2023-08-15T05:26:30.238Z,4.93
2023-08-15T05:28:31.848Z,5.07
2023-08-15T05:30:35.086Z,4.95
2023-08-15T05:32:36.724Z,5.28
2023-08-15T05:34:38.434Z,5.38
2023-08-15T05:36:40.489Z,4.75
2023-08-15T05:38:42.208Z,4.65
2023-08-15T05:40:44.063Z,5.05
2023-08-15T05:42:45.648Z,5.18
2023-08-15T05:44:48.106Z,4.25
2023-08-15T05:46:49.675Z,4.30
2023-08-15T05:48:51.288Z,4.68
2023-08-15T05:50:52.966Z,4.20
2023-08-15T05:52:54.650Z,4.38
2023-08-15T05:54:56.798Z,4.10
2023-08-15T05:56:58.591Z,4.50
2023-08-15T05:59:00.180Z,4.03
2023-08-15T06:01:02.282Z,3.80
2023-08-15T06:03:04.229Z,3.00
2023-08-15T06:05:06.483Z,3.53
2023-08-15T06:07:08.222Z,2.95
2023-08-15T06:09:09.864Z,3.60
2023-08-15T06:11:11.573Z,3.30
2023-08-15T06:13:13.099Z,4.20
2023-08-15T06:15:15.411Z,3.97
2023-08-15T06:17:18.247Z,3.83
2023-08-15T06:19:19.883Z,4.55
2023-08-15T06:21:21.484Z,3.90
2023-08-15T06:23:23.072Z,3.85
2023-08-15T06:25:24.691Z,3.90
2023-08-15T06:27:26.372Z,3.97
2023-08-15T06:29:28.041Z,4.05
2023-08-15T06:31:29.704Z,3.78
2023-08-15T06:33:31.422Z,3.78
2023-08-15T06:35:33.022Z,3.47
2023-08-15T06:37:34.631Z,3.58
2023-08-15T06:39:36.691Z,2.90
2023-08-15T06:41:38.627Z,3.30
2023-08-15T06:43:41.020Z,3.17
2023-08-15T06:45:42.679Z,2.72
2023-08-15T06:47:44.272Z,2.70
2023-08-15T06:49:45.826Z,2.72
2023-08-15T06:51:47.388Z,2.70
2023-08-15T06:53:52.324Z,2.75
2023-08-15T06:55:53.908Z,2.88
2023-08-15T06:57:55.726Z,2.00
2023-08-15T06:59:57.360Z,2.85
2023-08-15T07:01:58.924Z,2.38
2023-08-15T07:04:01.164Z,2.70
2023-08-15T07:06:04.936Z,2.60
2023-08-15T07:08:07.491Z,2.60
2023-08-15T07:10:11.203Z,2.60
2023-08-15T07:12:12.910Z,2.92
2023-08-15T07:14:14.467Z,2.80
2023-08-15T07:16:16.402Z,2.15
2023-08-15T07:20:21.609Z,2.95
2023-08-15T07:22:23.613Z,2.30
2023-08-15T07:24:25.729Z,2.70
2023-08-15T07:26:27.927Z,2.58
2023-08-15T07:28:29.567Z,2.83
2023-08-15T07:30:31.126Z,2.60
2023-08-15T07:32:36.279Z,2.70
2023-08-15T07:34:38.087Z,2.80
2023-08-15T07:36:40.306Z,2.72
2023-08-15T07:38:41.971Z,2.75
2023-08-15T07:40:43.615Z,2.85
2023-08-15T07:42:45.193Z,2.92
2023-08-15T07:44:46.740Z,2.70
2023-08-15T07:46:48.313Z,2.85
2023-08-15T07:48:50.013Z,2.42
2023-08-15T07:50:51.848Z,2.70
2023-08-15T07:54:55.532Z,2.78
2023-08-15T07:56:57.071Z,2.72
2023-08-15T07:58:59.008Z,3.03
2023-08-15T08:03:02.319Z,2.88
2023-08-15T08:05:07.522Z,2.67
2023-08-15T08:07:09.107Z,2.90
2023-08-15T08:09:10.813Z,3.15
2023-08-15T08:11:12.834Z,3.15
2023-08-15T08:13:17.825Z,2.92
2023-08-15T08:15:19.682Z,2.72
2023-08-15T08:17:22.104Z,2.75
2023-08-15T08:19:23.611Z,3.08
2023-08-15T08:21:26.259Z,3.25
2023-08-15T08:23:27.940Z,2.67
2023-08-15T08:25:29.576Z,2.53
2023-08-15T08:27:31.173Z,2.63
2023-08-15T08:29:32.985Z,2.70
2023-08-15T08:33:36.188Z,2.40
2023-08-15T08:35:38.001Z,2.45
2023-08-15T08:39:41.367Z,2.40
2023-08-15T08:41:43.170Z,2.60
2023-08-15T08:45:52.023Z,2.05
2023-08-15T08:47:55.208Z,1.83
2023-08-15T08:49:58.500Z,2.47
2023-08-15T08:52:00.640Z,2.40
2023-08-15T08:54:02.241Z,2.50
2023-08-15T08:56:04.501Z,2.42
2023-08-15T08:58:06.286Z,2.53
2023-08-15T09:00:10.574Z,2.28
2023-08-15T09:02:20.403Z,2.30
2023-08-15T09:04:22.576Z,2.63
2023-08-15T09:06:27.256Z,2.50
2023-08-15T09:08:28.827Z,2.13
2023-08-15T09:10:30.354Z,3.13
2023-08-15T09:12:40.109Z,2.50
2023-08-15T09:14:41.968Z,2.60
2023-08-15T09:16:51.636Z,2.60
2023-08-15T09:18:53.220Z,2.80
2023-08-15T09:20:54.883Z,2.58
2023-08-15T09:24:59.095Z,2.83
2023-08-15T09:29:07.123Z,2.78
2023-08-15T09:31:10.865Z,2.58
2023-08-15T09:33:14.818Z,2.78
2023-08-15T09:35:18.912Z,3.00
2023-08-15T09:37:22.597Z,2.80
2023-08-15T09:39:24.504Z,2.60
2023-08-15T09:41:28.065Z,2.80
2023-08-15T09:43:30.973Z,3.00
2023-08-15T09:45:32.822Z,3.53
2023-08-15T09:47:37.746Z,2.53
2023-08-15T09:49:39.878Z,3.10
2023-08-15T09:51:41.933Z,2.88
2023-08-15T09:53:44.771Z,3.60
2023-08-15T09:55:47.175Z,3.17
2023-08-15T09:57:50.707Z,3.10
2023-08-15T09:59:52.323Z,3.20
2023-08-15T10:03:59.360Z,3.20
2023-08-15T10:06:02.508Z,3.20
2023-08-15T10:08:04.877Z,3.25
2023-08-15T10:10:07.017Z,3.50
2023-08-15T10:12:10.898Z,3.33
2023-08-15T10:14:18.820Z,3.53
2023-08-15T10:16:20.749Z,3.40
2023-08-15T10:18:22.423Z,3.88
2023-08-15T10:22:26.128Z,3.42
2023-08-15T10:24:30.179Z,3.40
2023-08-15T10:26:32.178Z,3.30
2023-08-15T10:28:36.955Z,3.30
2023-08-15T10:30:52.047Z,2.70
2023-08-15T10:32:54.284Z,3.28
2023-08-15T10:34:59.804Z,3.42
2023-08-15T10:37:30.947Z,2.85
2023-08-15T10:39:38.139Z,2.53
2023-08-15T10:41:39.798Z,3.30
2023-08-15T10:45:53.789Z,3.30
2023-08-15T10:47:58.465Z,2.97
2023-08-15T10:50:00.245Z,3.10
2023-08-15T10:54:06.262Z,2.75
2023-08-15T10:56:09.565Z,2.97
2023-08-15T10:58:12.066Z,2.50
2023-08-15T11:00:18.901Z,2.83
2023-08-15T11:02:20.670Z,3.35
2023-08-15T11:04:22.340Z,2.92
2023-08-15T11:08:25.360Z,3.30
2023-08-15T11:10:26.958Z,3.45
2023-08-15T11:12:28.773Z,3.25
2023-08-15T11:14:30.442Z,3.47
2023-08-15T11:18:33.759Z,3.50
2023-08-15T11:20:35.577Z,3.50
2023-08-15T11:22:37.543Z,4.28
2023-08-15T11:24:39.555Z,3.90
2023-08-15T11:26:41.590Z,4.35
2023-08-15T11:28:43.468Z,3.78
2023-08-15T11:30:45.376Z,4.35
2023-08-15T11:32:47.317Z,4.20
2023-08-15T11:34:48.990Z,4.20
2023-08-15T11:36:50.728Z,4.50
2023-08-15T11:38:52.900Z,4.20
2023-08-15T11:40:54.703Z,3.40
2023-08-15T11:42:56.351Z,3.72
2023-08-15T11:47:03.305Z,3.95
2023-08-15T11:49:04.992Z,3.40
2023-08-15T11:51:06.735Z,3.42
2023-08-15T11:53:10.427Z,4.00
2023-08-15T11:55:12.425Z,4.13
2023-08-15T11:59:20.323Z,3.83
2023-08-15T12:01:26.244Z,3.92
2023-08-15T12:03:28.484Z,3.88
2023-08-15T12:05:30.341Z,4.40
2023-08-15T12:07:31.925Z,3.72
2023-08-15T12:09:33.875Z,3.70
2023-08-15T12:11:36.559Z,4.15
2023-08-15T12:13:40.003Z,3.80
2023-08-15T12:15:41.688Z,4.18
2023-08-15T12:19:44.998Z,3.97
2023-08-15T12:21:46.904Z,3.60
2023-08-15T12:23:48.564Z,4.40
2023-08-15T12:25:50.643Z,4.22
2023-08-15T12:30:13.507Z,3.95
2023-08-15T12:32:16.538Z,5.13
2023-08-15T12:34:18.178Z,4.57
2023-08-15T12:36:20.109Z,4.22
2023-08-15T12:38:21.674Z,4.50
2023-08-15T12:42:31.080Z,4.10
2023-08-15T12:44:33.265Z,4.47
2023-08-15T12:46:34.778Z,4.45
2023-08-15T12:48:36.666Z,4.30
2023-08-15T12:52:40.937Z,4.55
2023-08-15T12:54:42.709Z,3.25
2023-08-15T12:56:44.604Z,3.88
2023-08-15T13:00:49.890Z,3.42
2023-08-15T13:02:53.130Z,3.95
2023-08-15T13:04:55.407Z,4.70
2023-08-15T13:06:57.832Z,4.72
2023-08-15T13:08:59.447Z,4.43
2023-08-15T13:11:02.181Z,4.13
2023-08-15T13:13:04.206Z,3.95
2023-08-15T13:15:07.313Z,4.25
2023-08-15T13:17:08.969Z,4.18
2023-08-15T13:19:10.476Z,4.07
2023-08-15T13:21:12.029Z,3.92
2023-08-15T13:23:13.674Z,4.28
2023-08-15T13:25:15.220Z,4.13
2023-08-15T13:27:17.382Z,4.63
2023-08-15T13:29:19.365Z,4.30
2023-08-15T13:31:20.991Z,4.40
2023-08-15T13:33:22.790Z,4.30
2023-08-15T13:37:26.265Z,4.32
2023-08-15T13:39:28.073Z,4.40
2023-08-15T13:43:34.397Z,3.25
2023-08-15T13:45:36.261Z,3.60
2023-08-15T13:47:39.566Z,4.35
2023-08-15T13:49:41.547Z,3.83
2023-08-15T13:51:43.654Z,3.60
2023-08-15T13:53:45.885Z,4.30
2023-08-15T13:55:47.499Z,3.90
2023-08-15T13:57:49.306Z,4.00
2023-08-15T13:59:50.949Z,4.35
2023-08-15T14:01:53.048Z,3.70
2023-08-15T14:03:55.919Z,3.53
2023-08-15T14:05:58.567Z,3.60
2023-08-15T14:08:00.319Z,3.97
2023-08-15T14:12:04.528Z,3.15
2023-08-15T14:14:06.163Z,3.55
2023-08-15T14:16:07.822Z,3.33
2023-08-15T14:20:11.433Z,3.30
2023-08-15T14:22:12.955Z,3.33
2023-08-15T14:24:14.800Z,4.10
2023-08-15T14:26:16.898Z,3.40
2023-08-15T14:30:20.646Z,3.85
2023-08-15T14:32:22.365Z,3.42
2023-08-15T14:34:24.110Z,3.80
2023-08-15T14:36:25.767Z,3.33
2023-08-15T14:38:28.270Z,3.33
2023-08-15T14:40:30.130Z,3.30
2023-08-15T14:42:32.004Z,3.28
2023-08-15T14:44:35.416Z,3.20
2023-08-15T14:46:37.279Z,3.30
2023-08-15T14:50:41.174Z,3.22
2023-08-15T14:52:44.213Z,3.95
2023-08-15T14:54:45.737Z,3.38
2023-08-15T14:56:47.461Z,3.35
2023-08-15T14:58:50.557Z,3.20
2023-08-15T15:00:52.252Z,3.85
2023-08-15T15:02:53.904Z,2.70
2023-08-15T15:04:55.683Z,3.42
2023-08-15T15:06:57.288Z,3.22
2023-08-15T15:08:59.309Z,3.10
2023-08-15T15:11:02.010Z,3.30
2023-08-15T15:13:04.359Z,3.40
2023-08-15T15:15:06.943Z,3.75
2023-08-15T15:17:08.571Z,3.13
2023-08-15T15:19:10.139Z,3.38
2023-08-15T15:21:11.767Z,3.00
2023-08-15T15:23:13.414Z,3.17
2023-08-15T15:27:17.001Z,3.63
2023-08-15T15:29:19.045Z,3.78
2023-08-15T15:31:21.061Z,3.58
2023-08-15T15:33:22.984Z,3.55
2023-08-15T15:35:24.727Z,3.53
2023-08-15T15:37:26.330Z,4.30
2023-08-15T15:39:29.175Z,3.90
2023-08-15T15:41:31.027Z,4.13
2023-08-15T15:43:33.176Z,4.00
2023-08-15T15:45:37.164Z,3.38
2023-08-15T15:47:40.080Z,3.25
2023-08-15T15:49:41.961Z,3.22
2023-08-15T15:51:43.582Z,3.40
2023-08-15T15:53:45.186Z,3.85
2023-08-15T15:55:46.770Z,3.72
2023-08-15T15:57:48.838Z,3.13
2023-08-15T15:59:50.461Z,3.55
2023-08-15T16:01:52.760Z,4.35
2023-08-15T16:03:54.806Z,3.97
2023-08-15T16:05:56.388Z,4.07
2023-08-15T16:07:58.003Z,3.45
2023-08-15T16:09:59.563Z,3.60
2023-08-15T16:12:01.123Z,3.63
2023-08-15T16:14:02.683Z,4.43
2023-08-15T16:16:04.553Z,3.35
2023-08-15T16:18:06.467Z,3.67
2023-08-15T16:20:08.561Z,3.95
2023-08-15T16:22:10.187Z,3.65
2023-08-15T16:24:11.767Z,3.75
2023-08-15T16:26:13.373Z,3.95
2023-08-15T16:28:14.988Z,3.70
2023-08-15T16:30:18.756Z,4.15
2023-08-15T16:32:20.921Z,3.38
2023-08-15T16:34:23.084Z,4.15
2023-08-15T16:36:25.115Z,3.50
2023-08-15T16:38:26.645Z,3.90
2023-08-15T16:40:28.203Z,3.72
2023-08-15T16:42:29.768Z,4.43
2023-08-15T16:44:31.301Z,3.75
2023-08-15T16:46:33.239Z,3.60
2023-08-15T16:48:35.532Z,3.80
2023-08-15T16:50:38.693Z,3.75
2023-08-15T16:52:40.285Z,3.50
2023-08-15T16:54:41.863Z,3.28
2023-08-15T16:56:43.498Z,3.75
2023-08-15T16:58:46.620Z,3.58
2023-08-15T17:00:48.413Z,4.50
2023-08-15T17:04:53.702Z,3.53
2023-08-15T17:06:55.298Z,3.40
2023-08-15T17:08:57.056Z,3.20
2023-08-15T17:10:58.591Z,3.78
2023-08-15T17:15:02.372Z,3.75
2023-08-15T17:17:05.667Z,3.65
2023-08-15T17:19:07.316Z,3.17
2023-08-15T17:21:09.174Z,3.70
2023-08-15T17:25:12.562Z,3.72
2023-08-15T17:27:14.176Z,3.10
2023-08-15T17:29:15.792Z,3.40
2023-08-15T17:31:17.951Z,2.85
2023-08-15T17:33:19.496Z,3.40
2023-08-15T17:35:21.162Z,3.55
2023-08-15T17:37:22.958Z,3.40
2023-08-15T17:39:24.520Z,3.65
2023-08-15T17:41:26.273Z,3.60
2023-08-15T17:43:27.850Z,3.47
2023-08-15T17:45:29.432Z,3.50
2023-08-15T17:47:31.049Z,3.75
2023-08-15T17:49:32.854Z,2.80
2023-08-15T17:51:36.452Z,3.50
2023-08-15T17:53:38.703Z,3.40
2023-08-15T17:55:40.245Z,3.80
2023-08-15T17:57:42.086Z,3.40
2023-08-15T17:59:43.636Z,3.22
2023-08-15T18:01:45.229Z,3.60
2023-08-15T18:03:48.748Z,3.40
2023-08-15T18:05:50.492Z,2.90
2023-08-15T18:07:52.362Z,3.50
2023-08-15T18:09:54.053Z,3.55
2023-08-15T18:11:55.905Z,3.88
2023-08-15T18:13:57.967Z,3.58
2023-08-15T18:15:59.806Z,2.85
2023-08-15T18:20:03.202Z,3.20
2023-08-15T18:22:06.896Z,3.58
2023-08-15T18:24:11.839Z,3.65
2023-08-15T18:26:13.579Z,3.20
2023-08-15T18:28:15.102Z,3.50
2023-08-15T18:30:16.671Z,3.30
2023-08-15T18:32:18.442Z,3.67
2023-08-15T18:34:20.057Z,3.90
2023-08-15T18:36:21.713Z,3.63
2023-08-15T18:38:23.304Z,3.42
2023-08-15T18:40:25.201Z,3.35
2023-08-15T18:42:26.774Z,3.55
2023-08-15T18:44:28.376Z,3.50
2023-08-15T18:46:29.950Z,3.28
2023-08-15T18:48:32.418Z,3.28
2023-08-15T18:50:34.002Z,3.25
2023-08-15T18:52:35.640Z,3.70
2023-08-15T18:54:37.254Z,3.63
2023-08-15T18:56:38.904Z,3.72
2023-08-15T18:58:42.718Z,3.47
2023-08-15T19:00:44.440Z,3.50
2023-08-15T19:02:46.092Z,3.70
2023-08-15T19:04:47.699Z,3.83
2023-08-15T19:06:49.315Z,3.42
2023-08-15T19:08:51.144Z,3.25
2023-08-15T19:10:52.920Z,3.80
2023-08-15T19:12:54.492Z,3.70
2023-08-15T19:14:57.544Z,3.45
2023-08-15T19:16:59.104Z,3.58
2023-08-15T19:19:03.914Z,2.80
2023-08-15T19:21:05.481Z,3.50
2023-08-15T19:23:07.470Z,3.00
2023-08-15T19:27:10.901Z,3.70
2023-08-15T19:29:12.567Z,3.08
2023-08-15T19:31:14.200Z,3.20
2023-08-15T19:33:15.799Z,3.72
2023-08-15T19:35:17.678Z,3.25
2023-08-15T19:37:31.078Z,3.10
2023-08-15T19:39:38.367Z,3.25
2023-08-15T19:41:39.975Z,3.40
2023-08-15T19:43:41.793Z,2.95
2023-08-15T19:45:43.751Z,3.15
2023-08-15T19:47:45.929Z,3.20
2023-08-15T19:49:47.578Z,3.38
2023-08-15T19:51:49.352Z,3.90
2023-08-15T19:53:51.265Z,3.50
2023-08-15T19:55:53.143Z,3.75
2023-08-15T19:57:54.785Z,3.40
2023-08-15T19:59:56.432Z,3.63
2023-08-15T20:01:57.982Z,3.40
2023-08-15T20:03:59.569Z,3.60
2023-08-15T20:06:01.450Z,3.78
2023-08-15T20:08:03.709Z,4.13
2023-08-15T20:10:11.447Z,3.20
2023-08-15T20:12:13.621Z,3.50
2023-08-15T20:14:18.367Z,3.38
2023-08-15T20:16:19.988Z,3.22
2023-08-15T20:18:21.772Z,3.85
2023-08-15T20:20:23.474Z,3.25
2023-08-15T20:22:25.264Z,3.10
2023-08-15T20:24:27.643Z,3.33
2023-08-15T20:26:29.324Z,3.38
2023-08-15T20:28:30.945Z,3.20
2023-08-15T20:30:32.751Z,3.22
2023-08-15T20:32:34.481Z,3.25
2023-08-15T20:34:36.169Z,3.35
2023-08-15T20:36:37.719Z,3.40
2023-08-15T20:38:39.290Z,3.50
2023-08-15T20:40:41.540Z,3.20
2023-08-15T20:42:43.119Z,3.28
2023-08-15T20:44:44.773Z,3.63
2023-08-15T20:46:46.606Z,3.20
2023-08-15T20:48:48.407Z,3.30
2023-08-15T20:50:50.037Z,3.42
2023-08-15T20:52:54.578Z,3.33
2023-08-15T20:54:56.206Z,3.25
2023-08-15T20:59:00.083Z,2.88
2023-08-15T21:01:01.782Z,3.42
2023-08-15T21:03:03.624Z,3.70
2023-08-15T21:05:05.876Z,2.78
2023-08-15T21:07:07.806Z,2.88
2023-08-15T21:09:09.671Z,3.15
2023-08-15T21:11:11.219Z,3.15
2023-08-15T21:13:12.821Z,3.38
2023-08-15T21:15:14.477Z,3.45
2023-08-15T21:17:17.460Z,3.45
2023-08-15T21:19:19.351Z,3.88
2023-08-15T21:21:20.949Z,3.28
2023-08-15T21:23:22.748Z,3.50
2023-08-15T21:25:24.296Z,4.03
2023-08-15T21:27:25.916Z,3.90
2023-08-15T21:29:27.522Z,3.55
2023-08-15T21:31:29.913Z,3.90
2023-08-15T21:33:31.552Z,3.42
2023-08-15T21:35:34.306Z,3.08
2023-08-15T21:37:36.184Z,3.40
2023-08-15T21:39:38.031Z,2.83
2023-08-15T21:41:39.603Z,3.05
2023-08-15T21:43:41.234Z,3.17
2023-08-15T21:45:43.489Z,2.47
2023-08-15T21:47:45.127Z,3.60
2023-08-15T21:49:46.893Z,3.35
2023-08-15T21:51:48.480Z,3.33
2023-08-15T21:53:50.033Z,3.55
2023-08-15T21:55:51.551Z,3.03
2023-08-15T21:57:54.037Z,3.00
2023-08-15T21:59:55.697Z,3.88
2023-08-15T22:01:57.416Z,3.85
2023-08-15T22:03:59.070Z,3.78
2023-08-15T22:06:00.685Z,3.50
2023-08-15T22:08:02.314Z,3.35
2023-08-15T22:10:04.454Z,3.70
2023-08-15T22:12:06.139Z,3.45
2023-08-15T22:14:07.843Z,3.85
2023-08-15T22:16:09.574Z,3.85
2023-08-15T22:18:19.468Z,3.70
2023-08-15T22:20:22.467Z,4.03
2023-08-15T22:22:24.079Z,3.83
2023-08-15T22:24:25.697Z,3.70
2023-08-15T22:26:27.337Z,3.35
2023-08-15T22:28:29.333Z,3.20
2023-08-15T22:30:31.280Z,3.17
2023-08-15T22:32:33.756Z,3.83
2023-08-15T22:34:35.409Z,3.58
2023-08-15T22:36:37.240Z,3.78
2023-08-15T22:38:38.839Z,4.30
2023-08-15T22:40:40.378Z,4.60
2023-08-15T22:42:41.991Z,4.65
2023-08-15T22:44:43.611Z,4.35
2023-08-15T22:46:45.174Z,4.38
2023-08-15T22:48:47.104Z,3.67
2023-08-15T22:50:48.714Z,3.70
2023-08-15T22:52:50.285Z,4.22
2023-08-15T22:54:51.884Z,3.88
2023-08-15T22:56:53.511Z,3.60
2023-08-15T22:58:55.374Z,3.42
2023-08-15T23:00:58.352Z,3.30
2023-08-15T23:03:00.030Z,4.05
2023-08-15T23:05:01.768Z,4.00
2023-08-15T23:07:03.393Z,4.22
2023-08-15T23:09:05.185Z,3.83
2023-08-15T23:11:06.822Z,2.75
2023-08-15T23:13:08.479Z,3.20
2023-08-15T23:15:10.257Z,2.88
2023-08-15T23:17:12.089Z,3.00
2023-08-15T23:19:13.602Z,2.88
2023-08-15T23:21:15.160Z,3.97
2023-08-15T23:23:16.706Z,3.60
2023-08-15T23:25:18.286Z,3.35
2023-08-15T23:27:20.388Z,3.85
2023-08-15T23:31:33.203Z,4.45
2023-08-15T23:33:34.930Z,3.38
2023-08-15T23:35:36.560Z,3.72
2023-08-15T23:37:39.733Z,4.00
2023-08-15T23:39:41.554Z,3.72
2023-08-15T23:41:43.548Z,4.32
2023-08-15T23:43:45.091Z,4.63
2023-08-15T23:45:51.066Z,4.50
2023-08-15T23:47:52.849Z,4.10
2023-08-15T23:51:56.220Z,3.50
2023-08-15T23:53:57.939Z,3.97
2023-08-15T23:55:59.508Z,4.57
2023-08-15T23:58:01.032Z,4.20
